Time;durP1;ratioP1;P1;durP2;ratioP2;P2;SDS_P1;SDS_P2;PMS_P1;PMS_P2;Temp;Humidity;BMP_temperature;BMP_pressure;BME280_temperature;BME280_humidity;BME280_pressure;Samples;Min_cycle;Max_cycle;Signal;HPM_P1;HPM_P2
2023/09/01 00:00:15;;;;;;;4.43;2.45;;;;;;;-144.15;100.00;63241.31;1022926;28;20027;-77
2023/09/01 00:00:46;;;;;;;3.50;2.55;;;;;;;-144.15;100.00;63241.31;1023077;29;20373;-77
2023/09/01 00:01:17;;;;;;;3.53;2.25;;;;;;;-144.15;100.00;63241.31;1018901;29;20500;-76
2023/09/01 00:01:47;;;;;;;4.82;2.85;;;;;;;-144.15;100.00;63241.31;1019071;29;20119;-76
2023/09/01 00:02:18;;;;;;;5.47;3.38;;;;;;;-144.15;100.00;63241.31;1019133;29;20020;-77
2023/09/01 00:02:49;;;;;;;5.18;2.80;;;;;;;-144.15;100.00;63241.31;1023021;28;20019;-76
2023/09/01 00:03:20;;;;;;;4.03;2.75;;;;;;;-144.15;100.00;63241.31;1023274;28;20028;-76
2023/09/01 00:03:51;;;;;;;4.25;2.40;;;;;;;-144.15;100.00;63241.31;1027151;28;20481;-76
2023/09/01 00:04:22;;;;;;;5.65;2.58;;;;;;;-144.15;100.00;63241.31;1034449;28;20018;-77
2023/09/01 00:04:54;;;;;;;3.17;2.67;;;;;;;-144.15;100.00;63241.31;1027147;28;20746;-77
2023/09/01 00:05:24;;;;;;;5.07;2.55;;;;;;;-144.15;100.00;63241.31;1023097;29;20469;-78
2023/09/01 00:05:55;;;;;;;3.63;2.92;;;;;;;-144.15;100.00;63241.31;1019113;29;20015;-77
2023/09/01 00:06:26;;;;;;;4.72;3.33;;;;;;;-144.15;100.00;63241.31;1019258;29;20428;-77
2023/09/01 00:06:56;;;;;;;6.85;3.22;;;;;;;-144.15;100.00;63241.31;1023244;28;20129;-76
2023/09/01 00:07:26;;;;;;;3.58;2.60;;;;;;;-144.15;100.00;63241.31;1023122;28;20027;-77
2023/09/01 00:07:57;;;;;;;3.85;2.40;;;;;;;-144.15;100.00;63241.31;1023981;28;20482;-76
2023/09/01 00:08:27;;;;;;;3.70;2.70;;;;;;;-144.15;100.00;63241.31;1026924;28;20025;-76
2023/09/01 00:08:58;;;;;;;5.78;3.10;;;;;;;-144.15;100.00;63241.31;1027196;28;20027;-77
2023/09/01 00:09:28;;;;;;;5.22;2.50;;;;;;;-144.15;100.00;63241.31;1030901;28;20014;-77
2023/09/01 00:09:59;;;;;;;4.85;2.80;;;;;;;-144.15;100.00;63241.31;1030121;28;20480;-77
2023/09/01 00:10:29;;;;;;;3.45;2.15;;;;;;;-144.15;100.00;63241.31;1030896;28;20019;-77
2023/09/01 00:11:00;;;;;;;5.65;2.72;;;;;;;-144.15;100.00;63241.31;1022938;29;20499;-77
2023/09/01 00:11:30;;;;;;;3.72;2.70;;;;;;;-144.15;100.00;63241.31;1018679;29;20027;-76
2023/09/01 00:12:01;;;;;;;2.92;2.15;;;;;;;-144.15;100.00;63241.31;1022941;29;20038;-77
2023/09/01 00:12:31;;;;;;;3.33;2.60;;;;;;;-144.15;100.00;63241.31;1023009;28;20027;-76
2023/09/01 00:13:02;;;;;;;3.15;2.75;;;;;;;-144.15;100.00;63241.31;1026972;28;20396;-76
2023/09/01 00:13:32;;;;;;;3.53;2.60;;;;;;;-144.15;100.00;63241.31;1026265;28;20030;-76
2023/09/01 00:14:05;;;;;;;5.18;2.90;;;;;;;-144.15;100.00;63241.31;1031198;28;20018;-76
2023/09/01 00:14:35;;;;;;;5.47;2.83;;;;;;;-144.15;100.00;63241.31;1027101;28;20432;-76
2023/09/01 00:15:06;;;;;;;5.25;2.65;;;;;;;-144.15;100.00;63241.31;1026993;28;20019;-75
2023/09/01 00:15:36;;;;;;;4.63;2.88;;;;;;;-144.15;100.00;63241.31;1026889;28;20101;-76
2023/09/01 00:16:07;;;;;;;7.53;2.75;;;;;;;-144.15;100.00;63241.31;1023079;28;20512;-74
2023/09/01 00:16:37;;;;;;;3.67;2.90;;;;;;;-144.15;100.00;63241.31;1026885;28;20093;-75
2023/09/01 00:17:08;;;;;;;3.33;2.72;;;;;;;-144.15;100.00;63241.31;1026985;28;20175;-75
2023/09/01 00:17:39;;;;;;;3.90;3.10;;;;;;;-144.15;100.00;63241.31;1023049;29;20059;-75
2023/09/01 00:18:10;;;;;;;4.60;2.70;;;;;;;-144.15;100.00;63241.31;1024017;28;20035;-75
2023/09/01 00:18:40;;;;;;;8.85;3.47;;;;;;;-144.15;100.00;63241.31;1023212;28;20034;-73
2023/09/01 00:19:12;;;;;;;4.78;2.63;;;;;;;-144.15;100.00;63241.31;1022922;28;20031;-75
2023/09/01 00:19:42;;;;;;;9.82;3.63;;;;;;;-144.15;100.00;63241.31;1022963;29;20351;-75
2023/09/01 00:20:13;;;;;;;3.60;2.80;;;;;;;-144.15;100.00;63241.31;1019100;29;20125;-74
2023/09/01 00:20:43;;;;;;;4.53;3.33;;;;;;;-144.15;100.00;63241.31;1019181;29;20371;-74
2023/09/01 00:21:14;;;;;;;5.45;3.20;;;;;;;-144.15;100.00;63241.31;1022882;28;20032;-75
2023/09/01 00:21:44;;;;;;;6.45;3.25;;;;;;;-144.15;100.00;63241.31;1024489;28;20026;-75
2023/09/01 00:22:14;;;;;;;6.05;3.15;;;;;;;-144.15;100.00;63241.31;1026985;28;20055;-75
2023/09/01 00:22:45;;;;;;;4.10;3.25;;;;;;;-144.15;100.00;63241.31;1026846;28;20062;-75
2023/09/01 00:23:15;;;;;;;6.07;2.88;;;;;;;-144.15;100.00;63241.31;1022167;28;20511;-75
2023/09/01 00:23:46;;;;;;;5.25;3.30;;;;;;;-144.15;100.00;63241.31;1026790;28;20244;-74
2023/09/01 00:24:16;;;;;;;3.60;3.05;;;;;;;-144.15;100.00;63241.31;1023053;28;20030;-74
2023/09/01 00:24:47;;;;;;;5.15;2.80;;;;;;;-144.15;100.00;63241.31;1026965;28;20468;-74
2023/09/01 00:25:18;;;;;;;5.00;3.20;;;;;;;-144.15;100.00;63241.31;1022526;28;20038;-75
2023/09/01 00:25:52;;;;;;;4.05;3.05;;;;;;;-144.15;100.00;63241.31;1023229;28;20062;-75
2023/09/01 00:26:22;;;;;;;4.38;2.90;;;;;;;-144.15;100.00;63241.31;1019569;29;20028;-75
2023/09/01 00:26:53;;;;;;;5.18;3.22;;;;;;;-144.15;100.00;63241.31;1023340;28;20073;-75
2023/09/01 00:27:23;;;;;;;4.85;3.42;;;;;;;-144.15;100.00;63241.31;1026957;28;20027;-75
2023/09/01 00:27:54;;;;;;;6.43;3.25;;;;;;;-144.15;100.00;63241.31;1023049;28;20027;-75
2023/09/01 00:28:24;;;;;;;6.00;3.05;;;;;;;-144.15;100.00;63241.31;1026814;28;20030;-75
2023/09/01 00:28:54;;;;;;;6.32;3.55;;;;;;;-144.15;100.00;63241.31;1026878;28;20022;-76
2023/09/01 00:29:25;;;;;;;3.42;2.92;;;;;;;-144.15;100.00;63241.31;1019007;29;20039;-75
2023/09/01 00:29:55;;;;;;;6.75;3.20;;;;;;;-144.15;100.00;63241.31;1022957;28;20034;-75
2023/09/01 00:30:29;;;;;;;5.43;3.30;;;;;;;-144.15;100.00;63241.31;1019079;29;20024;-75
2023/09/01 00:31:00;;;;;;;4.10;3.30;;;;;;;-144.15;100.00;63241.31;1019474;29;20621;-75
2023/09/01 00:31:30;;;;;;;9.00;4.30;;;;;;;-144.15;100.00;63241.31;1022834;29;20093;-75
2023/09/01 00:32:01;;;;;;;7.15;3.45;;;;;;;-144.15;100.00;63241.31;1019205;29;20473;-75
2023/09/01 00:32:31;;;;;;;5.35;3.40;;;;;;;-144.15;100.00;63241.31;1015099;29;20016;-75
2023/09/01 00:33:02;;;;;;;7.47;3.50;;;;;;;-144.15;100.00;63241.31;1019084;29;20034;-75
2023/09/01 00:33:32;;;;;;;7.70;3.78;;;;;;;-144.15;100.00;63241.31;1014293;29;20023;-75
2023/09/01 00:34:03;;;;;;;6.40;3.38;;;;;;;-144.15;100.00;63241.31;1019254;28;20020;-75
2023/09/01 00:34:34;;;;;;;4.72;3.42;;;;;;;-144.15;100.00;63241.31;1022887;29;20019;-75
2023/09/01 00:35:05;;;;;;;5.93;3.80;;;;;;;-144.15;100.00;63241.31;1022917;28;20416;-76
2023/09/01 00:35:35;;;;;;;5.32;3.70;;;;;;;-144.15;100.00;63241.31;1022774;28;20031;-74
2023/09/01 00:36:05;;;;;;;5.43;3.80;;;;;;;-144.15;100.00;63241.31;1023254;28;20416;-73
2023/09/01 00:36:36;;;;;;;4.13;3.17;;;;;;;-144.15;100.00;63241.31;1022897;29;20031;-73
2023/09/01 00:37:07;;;;;;;4.60;3.53;;;;;;;-144.15;100.00;63241.31;1018820;29;20114;-73
2023/09/01 00:37:38;;;;;;;5.15;3.85;;;;;;;-144.15;100.00;63241.31;1021305;28;20714;-74
2023/09/01 00:38:08;;;;;;;5.22;3.72;;;;;;;-144.15;100.00;63241.31;1027115;28;20015;-74
2023/09/01 00:38:39;;;;;;;5.68;4.15;;;;;;;-144.15;100.00;63241.31;1026942;28;20062;-75
2023/09/01 00:39:10;;;;;;;9.55;4.38;;;;;;;-144.15;100.00;63241.31;1027024;28;20511;-74
2023/09/01 00:39:40;;;;;;;5.53;3.72;;;;;;;-144.15;100.00;63241.31;1026981;28;20026;-74
2023/09/01 00:40:11;;;;;;;5.20;3.80;;;;;;;-144.15;100.00;63241.31;1023071;28;20119;-74
2023/09/01 00:40:41;;;;;;;6.32;4.28;;;;;;;-144.15;100.00;63241.31;1022893;29;20481;-74
2023/09/01 00:41:12;;;;;;;4.45;3.83;;;;;;;-144.15;100.00;63241.31;1022951;28;20016;-74
2023/09/01 00:41:42;;;;;;;8.95;4.60;;;;;;;-144.15;100.00;63241.31;1023143;28;20070;-75
2023/09/01 00:42:13;;;;;;;5.07;3.67;;;;;;;-144.15;100.00;63241.31;1022775;28;20525;-74
2023/09/01 00:42:43;;;;;;;7.35;4.05;;;;;;;-144.15;100.00;63241.31;1023018;29;20015;-73
2023/09/01 00:43:15;;;;;;;5.60;3.97;;;;;;;-144.15;100.00;63241.31;1022471;28;20022;-73
2023/09/01 00:43:45;;;;;;;6.50;4.47;;;;;;;-144.15;100.00;63241.31;1022839;28;20074;-73
2023/09/01 00:44:15;;;;;;;8.38;4.80;;;;;;;-144.15;100.00;63241.31;1023119;28;20082;-73
2023/09/01 00:44:46;;;;;;;6.75;4.55;;;;;;;-144.15;100.00;63241.31;1026826;28;20033;-73
2023/09/01 00:45:17;;;;;;;8.65;4.22;;;;;;;-144.15;100.00;63241.31;1019124;28;20099;-73
2023/09/01 00:45:47;;;;;;;5.38;4.40;;;;;;;-144.15;100.00;63241.31;1026831;28;20035;-72
2023/09/01 00:46:18;;;;;;;7.32;4.40;;;;;;;-144.15;100.00;63241.31;1031055;28;20022;-73
2023/09/01 00:46:48;;;;;;;7.05;4.30;;;;;;;-144.15;100.00;63241.31;1018477;29;20484;-73
2023/09/01 00:47:19;;;;;;;7.03;4.28;;;;;;;-144.15;100.00;63241.31;1018885;29;20031;-75
2023/09/01 00:47:49;;;;;;;7.32;4.30;;;;;;;-144.15;100.00;63241.31;1015196;29;20016;-73
2023/09/01 00:48:20;;;;;;;7.25;4.35;;;;;;;-144.15;100.00;63241.31;1023261;29;20023;-73
2023/09/01 00:48:50;;;;;;;5.57;3.88;;;;;;;-144.15;100.00;63241.31;1019315;29;20020;-73
2023/09/01 00:49:20;;;;;;;6.88;4.57;;;;;;;-144.15;100.00;63241.31;1023364;29;20023;-74
2023/09/01 00:49:51;;;;;;;5.68;3.90;;;;;;;-144.15;100.00;63241.31;1023276;28;20019;-74
2023/09/01 00:50:22;;;;;;;8.82;4.20;;;;;;;-144.15;100.00;63241.31;1019142;29;20031;-72
2023/09/01 00:50:53;;;;;;;6.20;4.55;;;;;;;-144.15;100.00;63241.31;1018981;29;20035;-74
2023/09/01 00:51:25;;;;;;;8.38;4.80;;;;;;;-144.15;100.00;63241.31;1019027;29;20532;-74
2023/09/01 00:51:55;;;;;;;8.10;5.03;;;;;;;-144.15;100.00;63241.31;1026617;28;20075;-73
2023/09/01 00:52:25;;;;;;;8.00;4.60;;;;;;;-144.15;100.00;63241.31;1014964;29;20020;-74
2023/09/01 00:52:56;;;;;;;7.72;4.50;;;;;;;-144.15;100.00;63241.31;1018659;29;20023;-72
2023/09/01 00:53:26;;;;;;;7.95;4.30;;;;;;;-144.15;100.00;63241.31;1021963;29;20031;-74
2023/09/01 00:53:57;;;;;;;8.85;4.65;;;;;;;-144.15;100.00;63241.31;1014959;29;20035;-73
2023/09/01 00:54:27;;;;;;;6.20;4.22;;;;;;;-144.15;100.00;63241.31;1014722;29;20028;-73
2023/09/01 00:54:58;;;;;;;6.93;4.45;;;;;;;-144.15;100.00;63241.31;1015331;29;20039;-74
2023/09/01 00:55:29;;;;;;;6.05;4.40;;;;;;;-144.15;100.00;63241.31;1019037;28;20115;-74
2023/09/01 00:55:59;;;;;;;6.90;4.22;;;;;;;-144.15;100.00;63241.31;1023316;28;20093;-74
2023/09/01 00:56:30;;;;;;;6.22;4.25;;;;;;;-144.15;100.00;63241.31;1014438;29;20092;-74
2023/09/01 00:57:00;;;;;;;8.57;4.75;;;;;;;-144.15;100.00;63241.31;1011403;29;20028;-74
2023/09/01 00:57:30;;;;;;;5.88;4.13;;;;;;;-144.15;100.00;63241.31;1018899;29;20779;-72
2023/09/01 00:58:02;;;;;;;5.90;4.70;;;;;;;-144.15;100.00;63241.31;1023043;28;20038;-75
2023/09/01 00:58:32;;;;;;;12.32;4.30;;;;;;;-144.15;100.00;63241.31;1030295;28;20123;-73
2023/09/01 00:59:03;;;;;;;6.00;4.35;;;;;;;-144.15;100.00;63241.31;1022555;29;20116;-74
2023/09/01 00:59:33;;;;;;;7.07;3.85;;;;;;;-144.15;100.00;63241.31;1020432;28;20115;-73
2023/09/01 01:00:05;;;;;;;10.20;4.55;;;;;;;-144.15;100.00;63241.31;1018912;29;20032;-74
2023/09/01 01:00:36;;;;;;;7.60;4.28;;;;;;;-144.15;100.00;63241.31;1022629;29;20203;-73
2023/09/01 01:01:06;;;;;;;8.20;4.53;;;;;;;-144.15;100.00;63241.31;1019490;28;20039;-74
2023/09/01 01:01:36;;;;;;;7.05;4.18;;;;;;;-144.15;100.00;63241.31;1019363;28;20493;-73
2023/09/01 01:02:07;;;;;;;5.80;4.50;;;;;;;-144.15;100.00;63241.31;1022795;29;20536;-74
2023/09/01 01:02:38;;;;;;;8.85;4.47;;;;;;;-144.15;100.00;63241.31;1018731;29;20771;-73
2023/09/01 01:03:08;;;;;;;6.10;4.20;;;;;;;-144.15;100.00;63241.31;1024128;28;20022;-73
2023/09/01 01:03:39;;;;;;;5.88;4.32;;;;;;;-144.15;100.00;63241.31;1022174;29;20031;-75
2023/09/01 01:04:10;;;;;;;7.07;4.72;;;;;;;-144.15;100.00;63241.31;1022773;29;20023;-74
2023/09/01 01:04:41;;;;;;;6.38;4.68;;;;;;;-144.15;100.00;63241.31;1013123;29;20039;-74
2023/09/01 01:05:15;;;;;;;13.40;4.93;;;;;;;-144.15;100.00;63241.31;1014975;29;20148;-74
2023/09/01 01:06:11;;;;;;;5.95;4.38;;;;;;;-144.15;100.00;63241.31;1015558;29;20050;-74
2023/09/01 01:06:52;;;;;;;8.00;4.43;;;;;;;-144.15;100.00;63241.31;1026544;28;20074;-74
2023/09/01 01:07:34;;;;;;;;;;;;;;;-144.15;100.00;63241.31;1028482;28;20034;-73
2023/09/01 01:08:13;;;;;;;7.68;4.28;;;;;;;-144.15;100.00;63241.31;1026826;28;19922;-74
2023/09/01 01:08:49;;;;;;;7.90;4.43;;;;;;;-144.15;100.00;63241.31;1026725;28;20026;-74
2023/09/01 01:09:47;;;;;;;6.55;4.82;;;;;;;-144.15;100.00;63241.31;1030920;28;20030;-74
2023/09/01 01:10:19;;;;;;;8.35;4.22;;;;;;;-144.15;100.00;63241.31;1030941;28;20026;-74
2023/09/01 01:10:58;;;;;;;9.90;4.50;;;;;;;-144.15;100.00;63241.31;1030685;28;20412;-74
2023/09/01 01:11:50;;;;;;;8.38;4.32;;;;;;;-144.15;100.00;63241.31;1018431;29;20020;-75
2023/09/01 01:12:25;;;;;;;10.75;5.15;;;;;;;-144.15;100.00;63241.31;1010987;29;20027;-74
2023/09/01 01:13:04;;;;;;;6.28;5.03;;;;;;;-144.15;100.00;63241.31;1018680;29;20015;-73
2023/09/01 01:13:35;;;;;;;6.18;4.97;;;;;;;-144.15;100.00;63241.31;1017844;29;20530;-74
2023/09/01 01:14:13;;;;;;;7.28;4.80;;;;;;;-144.15;100.00;63241.31;1026733;28;20185;-73
2023/09/01 01:14:47;;;;;;;9.48;4.95;;;;;;;-144.15;100.00;63241.31;1022313;29;20027;-74
2023/09/01 01:15:19;;;;;;;7.28;4.82;;;;;;;-144.15;100.00;63241.31;1024744;28;20514;-74
2023/09/01 01:15:49;;;;;;;7.32;4.85;;;;;;;-144.15;100.00;63241.31;1026756;28;20022;-75
2023/09/01 01:16:20;;;;;;;9.95;5.53;;;;;;;-144.15;100.00;63241.31;1028369;28;20584;-73
2023/09/01 01:16:53;;;;;;;7.97;4.90;;;;;;;-144.15;100.00;63241.31;1018679;29;20086;-75
2023/09/01 01:17:24;;;;;;;8.45;5.15;;;;;;;-144.15;100.00;63241.31;1014804;29;20062;-74
2023/09/01 01:17:54;;;;;;;9.75;5.22;;;;;;;-144.15;100.00;63241.31;1018566;29;20383;-74
2023/09/01 01:18:25;;;;;;;9.02;5.28;;;;;;;-144.15;100.00;63241.31;1014741;29;20109;-75
2023/09/01 01:18:55;;;;;;;8.93;5.20;;;;;;;-144.15;100.00;63241.31;1014851;29;20020;-74
2023/09/01 01:19:29;;;;;;;8.43;5.95;;;;;;;-144.15;100.00;63241.31;1014794;29;20024;-73
2023/09/01 01:20:10;;;;;;;8.30;5.05;;;;;;;-144.15;100.00;63241.31;1016760;29;20111;-74
2023/09/01 01:20:47;;;;;;;6.97;5.00;;;;;;;-144.15;100.00;63241.31;1014957;29;20434;-75
2023/09/01 01:21:22;;;;;;;7.65;5.40;;;;;;;-144.15;100.00;63241.31;1010889;29;20430;-74
2023/09/01 01:21:52;;;;;;;9.70;4.82;;;;;;;-144.15;100.00;63241.31;1014780;29;20466;-74
2023/09/01 01:22:38;;;;;;;9.82;5.25;;;;;;;-144.15;100.00;63241.31;1018911;29;20028;-74
2023/09/01 01:23:09;;;;;;;6.63;4.72;;;;;;;-144.15;100.00;63241.31;1028672;28;20133;-74
2023/09/01 01:23:40;;;;;;;9.75;5.30;;;;;;;-144.15;100.00;63241.31;1030437;28;20034;-74
2023/09/01 01:24:10;;;;;;;9.60;5.22;;;;;;;-144.15;100.00;63241.31;1018653;29;20080;-75
2023/09/01 01:24:41;;;;;;;6.93;4.97;;;;;;;-144.15;100.00;63241.31;1014904;29;20665;-74
2023/09/01 01:25:12;;;;;;;8.55;4.90;;;;;;;-144.15;100.00;63241.31;1021505;29;20023;-74
2023/09/01 01:25:51;;;;;;;7.47;5.38;;;;;;;-144.15;100.00;63241.31;1022695;28;20039;-75
2023/09/01 01:26:23;;;;;;;7.20;4.97;;;;;;;-144.15;100.00;63241.31;1022837;29;20031;-75
2023/09/01 01:26:53;;;;;;;9.52;5.07;;;;;;;-144.15;100.00;63241.31;1014674;29;20067;-74
2023/09/01 01:27:24;;;;;;;7.38;4.63;;;;;;;-144.15;100.00;63241.31;1017678;29;20540;-76
2023/09/01 01:27:56;;;;;;;7.95;5.30;;;;;;;-144.15;100.00;63241.31;1014838;29;20486;-74
2023/09/01 01:28:27;;;;;;;9.98;5.38;;;;;;;-144.15;100.00;63241.31;1012176;29;20036;-73
2023/09/01 01:28:57;;;;;;;10.95;4.93;;;;;;;-144.15;100.00;63241.31;1018816;29;20606;-74
2023/09/01 01:29:28;;;;;;;7.55;4.82;;;;;;;-144.15;100.00;63241.31;1015039;29;20038;-75
2023/09/01 01:29:58;;;;;;;7.88;5.15;;;;;;;-144.15;100.00;63241.31;1018708;29;20028;-75
2023/09/01 01:30:29;;;;;;;9.15;5.32;;;;;;;-144.15;100.00;63241.31;1018838;29;20042;-74
2023/09/01 01:30:59;;;;;;;8.02;5.20;;;;;;;-144.15;100.00;63241.31;1022875;28;20070;-75
2023/09/01 01:31:30;;;;;;;6.93;5.20;;;;;;;-144.15;100.00;63241.31;1022339;29;20054;-75
2023/09/01 01:32:00;;;;;;;7.70;5.18;;;;;;;-144.15;100.00;63241.31;1022554;28;20098;-75
2023/09/01 01:32:31;;;;;;;7.80;4.60;;;;;;;-144.15;100.00;63241.31;1018739;29;20031;-74
2023/09/01 01:33:04;;;;;;;7.38;4.90;;;;;;;-144.15;100.00;63241.31;1022609;29;20403;-75
2023/09/01 01:33:52;;;;;;;7.90;5.45;;;;;;;-144.15;100.00;63241.31;1013676;29;20025;-75
2023/09/01 01:34:36;;;;;;;7.78;4.65;;;;;;;-144.15;100.00;63241.31;1014889;29;20682;-75
2023/09/01 01:35:32;;;;;;;7.68;5.10;;;;;;;-144.15;100.00;63241.31;1014677;29;20048;-74
2023/09/01 01:36:21;;;;;;;7.18;4.60;;;;;;;-144.15;100.00;63241.31;1021474;29;20015;-75
2023/09/01 01:37:07;;;;;;;10.13;4.82;;;;;;;-144.15;100.00;63241.31;1020055;29;20095;-74
2023/09/01 01:37:52;;;;;;;6.28;4.53;;;;;;;-144.15;100.00;63241.31;1021507;28;20022;-73
2023/09/01 01:38:25;;;;;;;10.40;5.43;;;;;;;-144.15;100.00;63241.31;1022892;28;20020;-74
2023/09/01 01:38:59;;;;;;;6.72;5.18;;;;;;;-144.15;100.00;63241.31;1018591;29;20387;-73
2023/09/01 01:39:31;;;;;;;8.57;5.40;;;;;;;-144.15;100.00;63241.31;1017434;29;20522;-74
2023/09/01 01:40:04;;;;;;;6.68;5.10;;;;;;;-144.15;100.00;63241.31;1019710;29;20019;-74
2023/09/01 01:40:35;;;;;;;8.02;5.13;;;;;;;-144.15;100.00;63241.31;1023479;28;20401;-73
2023/09/01 01:41:14;;;;;;;8.48;4.53;;;;;;;-144.15;100.00;63241.31;1022778;29;20012;-74
2023/09/01 01:41:53;;;;;;;9.18;6.43;;;;;;;-144.15;100.00;63241.31;1018748;29;20023;-74
2023/09/01 01:42:23;;;;;;;8.50;5.68;;;;;;;-144.15;100.00;63241.31;1018613;29;20047;-75
2023/09/01 01:42:54;;;;;;;9.48;5.13;;;;;;;-144.15;100.00;63241.31;1016953;29;20475;-74
2023/09/01 01:43:25;;;;;;;8.65;5.40;;;;;;;-144.15;100.00;63241.31;1011288;29;20021;-75
2023/09/01 01:43:56;;;;;;;9.43;5.28;;;;;;;-144.15;100.00;63241.31;1014596;29;20095;-74
2023/09/01 01:44:28;;;;;;;11.43;5.40;;;;;;;-144.15;100.00;63241.31;1022430;29;20102;-74
2023/09/01 01:44:59;;;;;;;10.57;5.40;;;;;;;-144.15;100.00;63241.31;1018688;29;20025;-74
2023/09/01 01:45:29;;;;;;;7.72;5.00;;;;;;;-144.15;100.00;63241.31;1026518;28;20039;-74
2023/09/01 01:46:00;;;;;;;8.07;5.30;;;;;;;-144.15;100.00;63241.31;1018851;29;20020;-73
2023/09/01 01:46:30;;;;;;;7.93;5.00;;;;;;;-144.15;100.00;63241.31;1022458;29;20015;-75
2023/09/01 01:47:01;;;;;;;8.93;5.35;;;;;;;-144.15;100.00;63241.31;1018729;29;20071;-75
2023/09/01 01:47:31;;;;;;;8.55;5.05;;;;;;;-144.15;100.00;63241.31;1026522;28;20019;-74
2023/09/01 01:48:02;;;;;;;7.68;5.47;;;;;;;-144.15;100.00;63241.31;1018601;29;20047;-74
2023/09/01 01:48:37;;;;;;;8.38;4.63;;;;;;;-144.15;100.00;63241.31;1018462;29;20026;-74
2023/09/01 01:49:10;;;;;;;7.85;5.38;;;;;;;-144.15;100.00;63241.31;1022309;28;20513;-74
2023/09/01 01:49:41;;;;;;;8.85;5.93;;;;;;;-144.15;100.00;63241.31;1023783;28;20050;-75
2023/09/01 01:50:11;;;;;;;7.05;5.03;;;;;;;-144.15;100.00;63241.31;1023684;28;20788;-75
2023/09/01 01:50:42;;;;;;;7.05;5.07;;;;;;;-144.15;100.00;63241.31;1022286;29;20027;-75
2023/09/01 01:51:12;;;;;;;9.43;5.35;;;;;;;-144.15;100.00;63241.31;1022519;28;20039;-75
2023/09/01 01:51:43;;;;;;;5.88;5.18;;;;;;;-144.15;100.00;63241.31;1022594;28;20071;-76
2023/09/01 01:52:13;;;;;;;9.23;4.68;;;;;;;-144.15;100.00;63241.31;1022654;28;20059;-74
2023/09/01 01:52:43;;;;;;;7.00;5.20;;;;;;;-144.15;100.00;63241.31;1028168;28;20035;-75
2023/09/01 01:53:14;;;;;;;6.88;4.97;;;;;;;-144.15;100.00;63241.31;1029900;28;20037;-73
2023/09/01 01:53:44;;;;;;;9.45;5.47;;;;;;;-144.15;100.00;63241.31;1026597;28;20409;-75
2023/09/01 01:54:15;;;;;;;8.43;5.38;;;;;;;-144.15;100.00;63241.31;1026663;28;20031;-76
2023/09/01 01:54:45;;;;;;;11.23;5.38;;;;;;;-144.15;100.00;63241.31;1030457;28;20034;-75
2023/09/01 01:55:16;;;;;;;7.93;5.25;;;;;;;-144.15;100.00;63241.31;1030610;28;20033;-74
2023/09/01 01:55:46;;;;;;;7.50;5.32;;;;;;;-144.15;100.00;63241.31;1022669;29;20677;-76
2023/09/01 01:56:17;;;;;;;10.05;5.45;;;;;;;-144.15;100.00;63241.31;1022625;28;20054;-75
2023/09/01 01:56:47;;;;;;;8.63;4.93;;;;;;;-144.15;100.00;63241.31;1022493;29;20031;-74
2023/09/01 01:57:18;;;;;;;7.50;5.38;;;;;;;-144.15;100.00;63241.31;1021204;28;20449;-75
2023/09/01 01:57:48;;;;;;;5.20;4.18;;;;;;;-144.15;100.00;63241.31;1026474;28;20027;-75
2023/09/01 01:58:19;;;;;;;7.28;5.00;;;;;;;-144.15;100.00;63241.31;1022786;28;20031;-76
2023/09/01 01:58:49;;;;;;;8.40;5.43;;;;;;;-144.15;100.00;63241.31;1026456;28;20081;-75
2023/09/01 01:59:20;;;;;;;9.05;4.90;;;;;;;-144.15;100.00;63241.31;1026781;28;20405;-74
2023/09/01 01:59:50;;;;;;;8.10;4.97;;;;;;;-144.15;100.00;63241.31;1030453;28;20080;-77
2023/09/01 02:00:21;;;;;;;7.45;5.38;;;;;;;-144.15;100.00;63241.31;1030953;28;20114;-75
2023/09/01 02:00:52;;;;;;;7.63;4.60;;;;;;;-144.15;100.00;63241.31;1030289;28;20081;-76
2023/09/01 02:01:25;;;;;;;6.50;4.70;;;;;;;-144.15;100.00;63241.31;1030516;28;20039;-75
2023/09/01 02:01:56;;;;;;;9.45;5.18;;;;;;;-144.15;100.00;63241.31;1026496;28;20022;-75
2023/09/01 02:02:26;;;;;;;9.38;4.93;;;;;;;-144.15;100.00;63241.31;1023086;28;20039;-76
2023/09/01 02:02:57;;;;;;;7.05;5.10;;;;;;;-144.15;100.00;63241.31;1018347;29;20213;-74
2023/09/01 02:03:27;;;;;;;8.30;5.18;;;;;;;-144.15;100.00;63241.31;1017916;29;20031;-76
2023/09/01 02:03:58;;;;;;;7.82;6.13;;;;;;;-144.15;100.00;63241.31;1022670;28;20031;-75
2023/09/01 02:04:28;;;;;;;7.13;4.85;;;;;;;-144.15;100.00;63241.31;1014744;29;20108;-75
2023/09/01 02:04:58;;;;;;;7.90;4.95;;;;;;;-144.15;100.00;63241.31;1018638;29;20040;-76
2023/09/01 02:05:29;;;;;;;8.43;4.63;;;;;;;-144.15;100.00;63241.31;1018445;29;20027;-77
2023/09/01 02:05:59;;;;;;;8.48;4.90;;;;;;;-144.15;100.00;63241.31;1018922;28;20028;-76
2023/09/01 02:06:30;;;;;;;8.38;5.00;;;;;;;-144.15;100.00;63241.31;1026527;28;20523;-76
2023/09/01 02:07:00;;;;;;;8.20;4.82;;;;;;;-144.15;100.00;63241.31;1026725;28;20015;-75
2023/09/01 02:07:31;;;;;;;9.10;5.20;;;;;;;-144.15;100.00;63241.31;1026471;28;20030;-76
2023/09/01 02:08:05;;;;;;;6.93;4.93;;;;;;;-144.15;100.00;63241.31;1022568;28;20030;-76
2023/09/01 02:08:36;;;;;;;7.72;4.75;;;;;;;-144.15;100.00;63241.31;1024918;28;20035;-75
2023/09/01 02:09:09;;;;;;;7.32;4.75;;;;;;;-144.15;100.00;63241.31;1026444;28;20484;-78
2023/09/01 02:09:40;;;;;;;8.35;4.68;;;;;;;-144.15;100.00;63241.31;1027461;28;20478;-75
2023/09/01 02:10:11;;;;;;;8.68;5.22;;;;;;;-144.15;100.00;63241.31;1027574;28;20022;-76
2023/09/01 02:10:41;;;;;;;5.65;4.38;;;;;;;-144.15;100.00;63241.31;1026611;28;20527;-75
2023/09/01 02:11:12;;;;;;;6.63;5.10;;;;;;;-144.15;100.00;63241.31;1022273;29;20043;-76
2023/09/01 02:11:42;;;;;;;8.82;5.07;;;;;;;-144.15;100.00;63241.31;1022417;28;20031;-75
2023/09/01 02:12:12;;;;;;;6.50;4.80;;;;;;;-144.15;100.00;63241.31;1018473;28;20044;-75
2023/09/01 02:12:44;;;;;;;6.43;4.68;;;;;;;-144.15;100.00;63241.31;1018666;29;20039;-74
2023/09/01 02:13:14;;;;;;;7.03;5.05;;;;;;;-144.15;100.00;63241.31;1021769;28;20035;-76
2023/09/01 02:13:45;;;;;;;6.55;4.85;;;;;;;-144.15;100.00;63241.31;1026814;28;20022;-75
2023/09/01 02:14:15;;;;;;;5.57;4.60;;;;;;;-144.15;100.00;63241.31;1034687;28;20456;-74
2023/09/01 02:14:45;;;;;;;7.20;4.50;;;;;;;-144.15;100.00;63241.31;1026645;28;20049;-75
2023/09/01 02:15:16;;;;;;;6.93;5.10;;;;;;;-144.15;100.00;63241.31;1026597;28;20137;-76
2023/09/01 02:15:53;;;;;;;9.57;4.80;;;;;;;-144.15;100.00;63241.31;1026464;28;20034;-74
2023/09/01 02:16:24;;;;;;;5.85;4.47;;;;;;;-144.15;100.00;63241.31;1019991;28;20030;-74
2023/09/01 02:16:54;;;;;;;7.75;5.05;;;;;;;-144.15;100.00;63241.31;1026528;28;20039;-76
2023/09/01 02:17:25;;;;;;;6.63;4.75;;;;;;;-144.15;100.00;63241.31;1026569;28;20104;-74
2023/09/01 02:17:57;;;;;;;6.90;4.80;;;;;;;-144.15;100.00;63241.31;1018828;29;20039;-74
2023/09/01 02:18:28;;;;;;;7.72;5.00;;;;;;;-144.15;100.00;63241.31;1018246;29;20118;-74
2023/09/01 02:18:58;;;;;;;6.32;4.88;;;;;;;-144.15;100.00;63241.31;1014964;29;20412;-74
2023/09/01 02:19:29;;;;;;;7.75;4.82;;;;;;;-144.15;100.00;63241.31;1014908;29;20182;-74
2023/09/01 02:20:00;;;;;;;6.57;4.70;;;;;;;-144.15;100.00;63241.31;1014628;29;20108;-74
2023/09/01 02:20:34;;;;;;;6.55;5.05;;;;;;;-144.15;100.00;63241.31;1014526;29;20039;-74
2023/09/01 02:21:05;;;;;;;6.97;4.82;;;;;;;-144.15;100.00;63241.31;1015268;29;20032;-74
2023/09/01 02:21:35;;;;;;;7.82;4.97;;;;;;;-144.15;100.00;63241.31;1014924;29;20505;-73
2023/09/01 02:22:06;;;;;;;6.18;5.18;;;;;;;-144.15;100.00;63241.31;1015892;29;20181;-75
2023/09/01 02:22:36;;;;;;;6.25;4.85;;;;;;;-144.15;100.00;63241.31;1022770;28;20039;-73
2023/09/01 02:23:07;;;;;;;7.70;4.50;;;;;;;-144.15;100.00;63241.31;1023113;28;20078;-72
2023/09/01 02:23:37;;;;;;;6.55;4.72;;;;;;;-144.15;100.00;63241.31;1025145;28;20058;-73
2023/09/01 02:24:08;;;;;;;8.27;4.80;;;;;;;-144.15;100.00;63241.31;1022873;29;20101;-75
2023/09/01 02:24:38;;;;;;;5.85;4.63;;;;;;;-144.15;100.00;63241.31;1023064;29;20066;-74
2023/09/01 02:25:09;;;;;;;10.45;5.88;;;;;;;-144.15;100.00;63241.31;1025357;28;20023;-73